sensor_id;sensor_type;location;lat;lon;timestamp;temperature;humidity
20231;DHT22;10274;49.022;9.338;2023-05-10T00:01:51;14.20;99.90
20231;DHT22;10274;49.022;9.338;2023-05-10T00:04:18;14.10;99.90
20231;DHT22;10274;49.022;9.338;2023-05-10T00:06:45;14.00;99.90
20231;DHT22;10274;49.022;9.338;2023-05-10T00:09:11;14.00;99.90
20231;DHT22;10274;49.022;9.338;2023-05-10T00:11:38;13.90;99.90
20231;DHT22;10274;49.022;9.338;2023-05-10T00:14:05;13.90;99.90
20231;DHT22;10274;49.022;9.338;2023-05-10T00:16:31;13.80;99.90
20231;DHT22;10274;49.022;9.338;2023-05-10T00:18:59;13.70;99.90
20231;DHT22;10274;49.022;9.338;2023-05-10T00:21:26;13.80;99.90
20231;DHT22;10274;49.022;9.338;2023-05-10T00:23:53;13.80;99.90
20231;DHT22;10274;49.022;9.338;2023-05-10T00:26:20;13.70;99.90
20231;DHT22;10274;49.022;9.338;2023-05-10T00:28:47;13.70;99.90
20231;DHT22;10274;49.022;9.338;2023-05-10T00:31:13;13.70;99.90
20231;DHT22;10274;49.022;9.338;2023-05-10T00:33:40;13.60;99.90
20231;DHT22;10274;49.022;9.338;2023-05-10T00:36:09;13.60;99.90
20231;DHT22;10274;49.022;9.338;2023-05-10T00:38:35;13.50;99.90
20231;DHT22;10274;49.022;9.338;2023-05-10T00:41:02;13.50;99.90
20231;DHT22;10274;49.022;9.338;2023-05-10T00:43:29;13.50;99.90
20231;DHT22;10274;49.022;9.338;2023-05-10T00:45:56;13.50;99.90
20231;DHT22;10274;49.022;9.338;2023-05-10T00:48:22;13.50;99.90
20231;DHT22;10274;49.022;9.338;2023-05-10T00:50:49;13.50;99.90
20231;DHT22;10274;49.022;9.338;2023-05-10T00:53:17;13.50;99.90
20231;DHT22;10274;49.022;9.338;2023-05-10T00:55:45;13.40;99.90
20231;DHT22;10274;49.022;9.338;2023-05-10T00:58:11;13.50;99.90
20231;DHT22;10274;49.022;9.338;2023-05-10T01:00:41;13.70;99.90
20231;DHT22;10274;49.022;9.338;2023-05-10T01:03:09;13.40;99.90
20231;DHT22;10274;49.022;9.338;2023-05-10T01:05:36;13.40;99.90
20231;DHT22;10274;49.022;9.338;2023-05-10T01:08:03;13.50;99.90
20231;DHT22;10274;49.022;9.338;2023-05-10T01:10:31;13.40;99.90
20231;DHT22;10274;49.022;9.338;2023-05-10T01:12:59;13.40;99.90
20231;DHT22;10274;49.022;9.338;2023-05-10T01:15:26;13.40;99.90
20231;DHT22;10274;49.022;9.338;2023-05-10T01:17:53;13.30;99.90
20231;DHT22;10274;49.022;9.338;2023-05-10T01:20:20;13.40;99.90
20231;DHT22;10274;49.022;9.338;2023-05-10T01:29:07;13.30;99.90
20231;DHT22;10274;49.022;9.338;2023-05-10T01:34:49;13.30;99.90
20231;DHT22;10274;49.022;9.338;2023-05-10T01:37:23;13.30;99.90
20231;DHT22;10274;49.022;9.338;2023-05-10T01:39:57;13.30;99.90
20231;DHT22;10274;49.022;9.338;2023-05-10T01:42:29;13.30;99.90
20231;DHT22;10274;49.022;9.338;2023-05-10T01:45:10;13.20;99.90
20231;DHT22;10274;49.022;9.338;2023-05-10T01:47:42;13.20;99.90
20231;DHT22;10274;49.022;9.338;2023-05-10T01:50:15;13.20;99.90
20231;DHT22;10274;49.022;9.338;2023-05-10T01:52:46;13.20;99.90
20231;DHT22;10274;49.022;9.338;2023-05-10T01:55:16;13.20;99.90
20231;DHT22;10274;49.022;9.338;2023-05-10T01:57:45;13.10;99.90
20231;DHT22;10274;49.022;9.338;2023-05-10T02:00:13;13.10;99.90
20231;DHT22;10274;49.022;9.338;2023-05-10T02:02:45;13.00;99.90
20231;DHT22;10274;49.022;9.338;2023-05-10T02:05:14;13.00;99.90
20231;DHT22;10274;49.022;9.338;2023-05-10T02:07:42;13.00;99.90
20231;DHT22;10274;49.022;9.338;2023-05-10T02:10:11;13.10;99.90
20231;DHT22;10274;49.022;9.338;2023-05-10T02:12:41;13.20;99.90
20231;DHT22;10274;49.022;9.338;2023-05-10T02:15:10;13.00;99.90
20231;DHT22;10274;49.022;9.338;2023-05-10T02:17:39;13.00;99.90
20231;DHT22;10274;49.022;9.338;2023-05-10T02:20:07;13.00;99.90
20231;DHT22;10274;49.022;9.338;2023-05-10T02:22:36;12.90;99.90
20231;DHT22;10274;49.022;9.338;2023-05-10T02:25:06;12.90;99.90
20231;DHT22;10274;49.022;9.338;2023-05-10T02:27:33;12.90;99.90
20231;DHT22;10274;49.022;9.338;2023-05-10T02:30:01;12.90;99.90
20231;DHT22;10274;49.022;9.338;2023-05-10T02:32:29;13.00;99.90
20231;DHT22;10274;49.022;9.338;2023-05-10T02:34:57;12.90;99.90
20231;DHT22;10274;49.022;9.338;2023-05-10T02:37:25;12.90;99.90
20231;DHT22;10274;49.022;9.338;2023-05-10T02:39:55;12.90;99.90
20231;DHT22;10274;49.022;9.338;2023-05-10T02:42:25;12.90;99.90
20231;DHT22;10274;49.022;9.338;2023-05-10T02:44:56;12.90;99.90
20231;DHT22;10274;49.022;9.338;2023-05-10T02:47:25;13.00;99.90
20231;DHT22;10274;49.022;9.338;2023-05-10T02:49:53;12.90;99.90
20231;DHT22;10274;49.022;9.338;2023-05-10T02:52:25;12.90;99.90
20231;DHT22;10274;49.022;9.338;2023-05-10T02:54:55;12.70;99.90
20231;DHT22;10274;49.022;9.338;2023-05-10T02:57:27;12.70;99.90
20231;DHT22;10274;49.022;9.338;2023-05-10T02:59:55;12.70;99.90
20231;DHT22;10274;49.022;9.338;2023-05-10T03:02:21;12.60;99.90
20231;DHT22;10274;49.022;9.338;2023-05-10T03:04:48;12.60;99.90
20231;DHT22;10274;49.022;9.338;2023-05-10T03:07:15;12.60;99.90
20231;DHT22;10274;49.022;9.338;2023-05-10T03:09:42;12.60;99.90
20231;DHT22;10274;49.022;9.338;2023-05-10T03:12:14;12.70;99.90
20231;DHT22;10274;49.022;9.338;2023-05-10T03:14:49;12.70;99.90
20231;DHT22;10274;49.022;9.338;2023-05-10T03:17:23;12.70;99.90
20231;DHT22;10274;49.022;9.338;2023-05-10T03:19:54;12.70;99.90
20231;DHT22;10274;49.022;9.338;2023-05-10T03:22:30;12.70;99.90
20231;DHT22;10274;49.022;9.338;2023-05-10T03:24:58;12.70;99.90
20231;DHT22;10274;49.022;9.338;2023-05-10T03:27:30;12.70;99.90
20231;DHT22;10274;49.022;9.338;2023-05-10T03:29:58;12.80;99.90
20231;DHT22;10274;49.022;9.338;2023-05-10T03:32:26;12.70;99.90
20231;DHT22;10274;49.022;9.338;2023-05-10T03:34:53;12.70;99.90
20231;DHT22;10274;49.022;9.338;2023-05-10T03:37:20;12.70;99.90
20231;DHT22;10274;49.022;9.338;2023-05-10T03:39:46;12.80;99.90
20231;DHT22;10274;49.022;9.338;2023-05-10T03:42:13;12.80;99.90
20231;DHT22;10274;49.022;9.338;2023-05-10T03:44:41;12.70;99.90
20231;DHT22;10274;49.022;9.338;2023-05-10T03:47:08;12.80;99.90
20231;DHT22;10274;49.022;9.338;2023-05-10T03:49:35;12.80;99.90
20231;DHT22;10274;49.022;9.338;2023-05-10T03:52:01;12.80;99.90
20231;DHT22;10274;49.022;9.338;2023-05-10T03:54:28;12.80;99.90
20231;DHT22;10274;49.022;9.338;2023-05-10T03:56:55;12.80;99.90
20231;DHT22;10274;49.022;9.338;2023-05-10T03:59:21;12.80;99.90
20231;DHT22;10274;49.022;9.338;2023-05-10T04:01:49;12.80;99.90
20231;DHT22;10274;49.022;9.338;2023-05-10T04:04:16;12.80;99.90
20231;DHT22;10274;49.022;9.338;2023-05-10T04:06:43;12.80;99.90
20231;DHT22;10274;49.022;9.338;2023-05-10T04:09:10;12.80;99.90
20231;DHT22;10274;49.022;9.338;2023-05-10T04:11:37;12.80;99.90
20231;DHT22;10274;49.022;9.338;2023-05-10T04:14:04;12.80;99.90
20231;DHT22;10274;49.022;9.338;2023-05-10T04:16:30;12.80;99.90
20231;DHT22;10274;49.022;9.338;2023-05-10T04:18:58;12.80;99.90
20231;DHT22;10274;49.022;9.338;2023-05-10T04:21:25;12.80;99.90
20231;DHT22;10274;49.022;9.338;2023-05-10T04:23:52;12.70;99.90
20231;DHT22;10274;49.022;9.338;2023-05-10T04:26:19;12.70;99.90
20231;DHT22;10274;49.022;9.338;2023-05-10T04:28:46;12.70;99.90
20231;DHT22;10274;49.022;9.338;2023-05-10T04:31:12;12.80;99.90
20231;DHT22;10274;49.022;9.338;2023-05-10T04:33:39;12.80;99.90
20231;DHT22;10274;49.022;9.338;2023-05-10T04:36:07;12.80;99.90
20231;DHT22;10274;49.022;9.338;2023-05-10T04:38:34;12.90;99.90
20231;DHT22;10274;49.022;9.338;2023-05-10T04:41:04;12.90;99.90
20231;DHT22;10274;49.022;9.338;2023-05-10T04:43:31;12.90;99.90
20231;DHT22;10274;49.022;9.338;2023-05-10T04:45:58;12.90;99.90
20231;DHT22;10274;49.022;9.338;2023-05-10T04:48:25;12.90;99.90
20231;DHT22;10274;49.022;9.338;2023-05-10T04:50:52;12.90;99.90
20231;DHT22;10274;49.022;9.338;2023-05-10T04:53:20;12.90;99.90
20231;DHT22;10274;49.022;9.338;2023-05-10T04:55:47;13.00;99.90
20231;DHT22;10274;49.022;9.338;2023-05-10T04:58:14;13.00;99.90
20231;DHT22;10274;49.022;9.338;2023-05-10T05:00:41;12.90;99.90
20231;DHT22;10274;49.022;9.338;2023-05-10T05:03:08;13.00;99.90
20231;DHT22;10274;49.022;9.338;2023-05-10T05:05:35;13.00;99.90
20231;DHT22;10274;49.022;9.338;2023-05-10T05:08:01;13.00;99.90
20231;DHT22;10274;49.022;9.338;2023-05-10T05:10:29;13.10;99.90
20231;DHT22;10274;49.022;9.338;2023-05-10T05:12:56;13.10;99.90
20231;DHT22;10274;49.022;9.338;2023-05-10T05:15:23;13.20;99.90
20231;DHT22;10274;49.022;9.338;2023-05-10T05:17:50;13.20;99.90
20231;DHT22;10274;49.022;9.338;2023-05-10T05:20:17;13.10;99.90
20231;DHT22;10274;49.022;9.338;2023-05-10T05:22:44;13.10;99.90
20231;DHT22;10274;49.022;9.338;2023-05-10T05:25:11;13.20;99.90
20231;DHT22;10274;49.022;9.338;2023-05-10T05:27:39;13.30;99.90
20231;DHT22;10274;49.022;9.338;2023-05-10T05:30:07;13.20;99.90
20231;DHT22;10274;49.022;9.338;2023-05-10T05:32:34;13.30;99.90
20231;DHT22;10274;49.022;9.338;2023-05-10T05:35:00;13.30;99.90
20231;DHT22;10274;49.022;9.338;2023-05-10T05:37:27;13.30;99.90
20231;DHT22;10274;49.022;9.338;2023-05-10T05:39:54;13.40;99.90
20231;DHT22;10274;49.022;9.338;2023-05-10T05:42:20;13.50;99.90
20231;DHT22;10274;49.022;9.338;2023-05-10T05:44:48;13.60;99.90
20231;DHT22;10274;49.022;9.338;2023-05-10T05:47:15;13.60;99.90
20231;DHT22;10274;49.022;9.338;2023-05-10T05:49:42;13.70;99.90
20231;DHT22;10274;49.022;9.338;2023-05-10T05:52:11;13.80;99.90
20231;DHT22;10274;49.022;9.338;2023-05-10T05:54:38;13.70;99.90
20231;DHT22;10274;49.022;9.338;2023-05-10T05:57:04;13.60;99.90
20231;DHT22;10274;49.022;9.338;2023-05-10T05:59:31;13.70;99.90
20231;DHT22;10274;49.022;9.338;2023-05-10T06:01:59;13.80;99.90
20231;DHT22;10274;49.022;9.338;2023-05-10T06:04:26;13.70;99.90
20231;DHT22;10274;49.022;9.338;2023-05-10T06:06:52;13.80;99.90
20231;DHT22;10274;49.022;9.338;2023-05-10T06:09:19;13.80;99.90
20231;DHT22;10274;49.022;9.338;2023-05-10T06:11:46;13.90;99.90
20231;DHT22;10274;49.022;9.338;2023-05-10T06:14:13;13.90;99.90
20231;DHT22;10274;49.022;9.338;2023-05-10T06:16:40;13.90;99.90
20231;DHT22;10274;49.022;9.338;2023-05-10T06:19:08;13.90;99.90
20231;DHT22;10274;49.022;9.338;2023-05-10T06:21:35;13.80;99.90
20231;DHT22;10274;49.022;9.338;2023-05-10T06:24:02;13.90;99.90
20231;DHT22;10274;49.022;9.338;2023-05-10T06:26:29;13.80;99.90
20231;DHT22;10274;49.022;9.338;2023-05-10T06:28:55;13.90;99.90
20231;DHT22;10274;49.022;9.338;2023-05-10T06:31:22;13.80;99.90
20231;DHT22;10274;49.022;9.338;2023-05-10T06:33:49;13.90;99.90
20231;DHT22;10274;49.022;9.338;2023-05-10T06:36:17;14.00;99.90
20231;DHT22;10274;49.022;9.338;2023-05-10T06:38:44;13.90;99.90
20231;DHT22;10274;49.022;9.338;2023-05-10T06:41:11;13.90;99.90
20231;DHT22;10274;49.022;9.338;2023-05-10T06:43:37;13.90;99.90
20231;DHT22;10274;49.022;9.338;2023-05-10T06:46:06;13.80;99.90
20231;DHT22;10274;49.022;9.338;2023-05-10T06:48:33;13.90;99.90
20231;DHT22;10274;49.022;9.338;2023-05-10T06:51:01;13.80;99.90
20231;DHT22;10274;49.022;9.338;2023-05-10T06:53:30;13.80;99.90
20231;DHT22;10274;49.022;9.338;2023-05-10T06:55:57;13.80;99.90
20231;DHT22;10274;49.022;9.338;2023-05-10T06:58:24;13.90;99.90
20231;DHT22;10274;49.022;9.338;2023-05-10T07:00:51;13.80;99.90
20231;DHT22;10274;49.022;9.338;2023-05-10T07:03:18;13.70;99.90
20231;DHT22;10274;49.022;9.338;2023-05-10T07:05:44;13.70;99.90
20231;DHT22;10274;49.022;9.338;2023-05-10T07:08:11;13.80;99.90
20231;DHT22;10274;49.022;9.338;2023-05-10T07:10:40;13.80;99.90
20231;DHT22;10274;49.022;9.338;2023-05-10T07:13:06;13.80;99.90
20231;DHT22;10274;49.022;9.338;2023-05-10T07:15:33;13.90;99.90
20231;DHT22;10274;49.022;9.338;2023-05-10T07:18:00;13.90;99.90
20231;DHT22;10274;49.022;9.338;2023-05-10T07:20:27;13.90;99.90
20231;DHT22;10274;49.022;9.338;2023-05-10T07:22:53;13.90;99.90
20231;DHT22;10274;49.022;9.338;2023-05-10T07:25:20;13.90;99.90
20231;DHT22;10274;49.022;9.338;2023-05-10T07:27:48;14.10;99.90
20231;DHT22;10274;49.022;9.338;2023-05-10T07:30:16;14.00;99.90
20231;DHT22;10274;49.022;9.338;2023-05-10T07:32:43;14.10;99.90
20231;DHT22;10274;49.022;9.338;2023-05-10T07:35:10;14.10;99.90
20231;DHT22;10274;49.022;9.338;2023-05-10T07:37:37;14.10;99.90
20231;DHT22;10274;49.022;9.338;2023-05-10T07:40:04;14.10;99.90
20231;DHT22;10274;49.022;9.338;2023-05-10T07:42:31;14.10;99.90
20231;DHT22;10274;49.022;9.338;2023-05-10T07:44:59;14.20;99.90
20231;DHT22;10274;49.022;9.338;2023-05-10T07:47:26;14.20;99.90
20231;DHT22;10274;49.022;9.338;2023-05-10T07:49:53;14.20;99.90
20231;DHT22;10274;49.022;9.338;2023-05-10T07:52:20;14.30;99.90
20231;DHT22;10274;49.022;9.338;2023-05-10T07:54:46;14.30;99.90
20231;DHT22;10274;49.022;9.338;2023-05-10T07:57:13;14.30;99.90
20231;DHT22;10274;49.022;9.338;2023-05-10T07:59:43;14.40;99.90
20231;DHT22;10274;49.022;9.338;2023-05-10T08:02:11;14.40;99.90
20231;DHT22;10274;49.022;9.338;2023-05-10T08:04:37;14.30;99.90
20231;DHT22;10274;49.022;9.338;2023-05-10T08:07:04;14.40;99.90
20231;DHT22;10274;49.022;9.338;2023-05-10T08:09:31;14.50;99.90
20231;DHT22;10274;49.022;9.338;2023-05-10T08:11:58;14.60;99.90
20231;DHT22;10274;49.022;9.338;2023-05-10T08:14:25;14.70;99.90
20231;DHT22;10274;49.022;9.338;2023-05-10T08:16:52;14.90;99.90
20231;DHT22;10274;49.022;9.338;2023-05-10T08:19:20;14.80;99.90
20231;DHT22;10274;49.022;9.338;2023-05-10T08:21:47;15.00;99.90
20231;DHT22;10274;49.022;9.338;2023-05-10T08:24:13;15.00;98.60
20231;DHT22;10274;49.022;9.338;2023-05-10T08:26:40;15.10;99.90
20231;DHT22;10274;49.022;9.338;2023-05-10T08:29:07;15.20;99.90
20231;DHT22;10274;49.022;9.338;2023-05-10T08:31:34;15.10;99.90
20231;DHT22;10274;49.022;9.338;2023-05-10T08:34:01;15.00;14.20
20231;DHT22;10274;49.022;9.338;2023-05-10T08:36:29;15.10;73.50
20231;DHT22;10274;49.022;9.338;2023-05-10T08:38:56;14.90;64.80
20231;DHT22;10274;49.022;9.338;2023-05-10T08:41:23;14.90;12.20
20231;DHT22;10274;49.022;9.338;2023-05-10T08:43:52;14.90;1.00
20231;DHT22;10274;49.022;9.338;2023-05-10T08:46:21;14.80;16.10
20231;DHT22;10274;49.022;9.338;2023-05-10T08:48:49;14.90;25.70
20231;DHT22;10274;49.022;9.338;2023-05-10T08:51:18;14.90;1.00
20231;DHT22;10274;49.022;9.338;2023-05-10T08:53:47;15.00;41.90
20231;DHT22;10274;49.022;9.338;2023-05-10T08:56:15;14.90;1.00
20231;DHT22;10274;49.022;9.338;2023-05-10T08:58:43;15.00;1.00
20231;DHT22;10274;49.022;9.338;2023-05-10T09:01:11;15.00;1.00
20231;DHT22;10274;49.022;9.338;2023-05-10T09:03:39;15.00;1.00
20231;DHT22;10274;49.022;9.338;2023-05-10T09:06:06;15.10;1.00
20231;DHT22;10274;49.022;9.338;2023-05-10T09:08:33;15.00;1.00
20231;DHT22;10274;49.022;9.338;2023-05-10T09:11:02;15.00;1.00
20231;DHT22;10274;49.022;9.338;2023-05-10T09:13:29;15.00;9.40
20231;DHT22;10274;49.022;9.338;2023-05-10T09:15:56;15.00;64.40
20231;DHT22;10274;49.022;9.338;2023-05-10T09:18:23;15.00;75.10
20231;DHT22;10274;49.022;9.338;2023-05-10T09:20:50;15.00;99.90
20231;DHT22;10274;49.022;9.338;2023-05-10T09:23:16;15.00;98.40
20231;DHT22;10274;49.022;9.338;2023-05-10T09:25:43;14.90;96.10
20231;DHT22;10274;49.022;9.338;2023-05-10T09:28:12;14.80;50.00
20231;DHT22;10274;49.022;9.338;2023-05-10T09:30:38;14.50;23.80
20231;DHT22;10274;49.022;9.338;2023-05-10T09:33:05;14.70;94.50
20231;DHT22;10274;49.022;9.338;2023-05-10T09:35:33;14.90;99.90
20231;DHT22;10274;49.022;9.338;2023-05-10T09:38:01;14.90;31.20
20231;DHT22;10274;49.022;9.338;2023-05-10T09:40:29;15.20;96.50
20231;DHT22;10274;49.022;9.338;2023-05-10T09:42:57;15.50;77.30
20231;DHT22;10274;49.022;9.338;2023-05-10T09:45:27;15.70;24.20
20231;DHT22;10274;49.022;9.338;2023-05-10T09:47:54;16.00;1.00
20231;DHT22;10274;49.022;9.338;2023-05-10T09:50:21;16.20;1.00
20231;DHT22;10274;49.022;9.338;2023-05-10T09:52:49;16.70;1.00
20231;DHT22;10274;49.022;9.338;2023-05-10T09:55:19;16.70;1.00
20231;DHT22;10274;49.022;9.338;2023-05-10T09:57:46;16.50;1.00
20231;DHT22;10274;49.022;9.338;2023-05-10T10:00:18;16.40;1.00
20231;DHT22;10274;49.022;9.338;2023-05-10T10:02:48;16.40;1.00
20231;DHT22;10274;49.022;9.338;2023-05-10T10:05:15;16.40;1.00
20231;DHT22;10274;49.022;9.338;2023-05-10T10:07:41;16.30;1.00
20231;DHT22;10274;49.022;9.338;2023-05-10T10:10:09;16.20;1.00
20231;DHT22;10274;49.022;9.338;2023-05-10T10:12:39;16.30;1.00
20231;DHT22;10274;49.022;9.338;2023-05-10T10:15:07;16.30;1.00
20231;DHT22;10274;49.022;9.338;2023-05-10T10:17:36;16.30;1.00
20231;DHT22;10274;49.022;9.338;2023-05-10T10:20:06;16.40;1.00
20231;DHT22;10274;49.022;9.338;2023-05-10T10:22:33;16.90;1.00
20231;DHT22;10274;49.022;9.338;2023-05-10T10:24:59;17.20;1.00
20231;DHT22;10274;49.022;9.338;2023-05-10T10:27:28;17.20;99.90
20231;DHT22;10274;49.022;9.338;2023-05-10T10:30:00;16.80;99.90
20231;DHT22;10274;49.022;9.338;2023-05-10T10:32:30;16.90;1.00
20231;DHT22;10274;49.022;9.338;2023-05-10T10:34:59;16.90;1.00
20231;DHT22;10274;49.022;9.338;2023-05-10T10:40:24;16.20;1.00
20231;DHT22;10274;49.022;9.338;2023-05-10T10:42:51;15.70;1.00
20231;DHT22;10274;49.022;9.338;2023-05-10T10:45:19;15.40;13.10
20231;DHT22;10274;49.022;9.338;2023-05-10T10:47:46;15.00;34.70
20231;DHT22;10274;49.022;9.338;2023-05-10T10:50:13;14.70;56.70
20231;DHT22;10274;49.022;9.338;2023-05-10T10:52:42;14.50;96.90
20231;DHT22;10274;49.022;9.338;2023-05-10T10:55:09;14.50;92.80
20231;DHT22;10274;49.022;9.338;2023-05-10T10:57:48;14.40;94.80
20231;DHT22;10274;49.022;9.338;2023-05-10T11:00:24;14.40;99.90
20231;DHT22;10274;49.022;9.338;2023-05-10T11:02:52;14.50;99.90
20231;DHT22;10274;49.022;9.338;2023-05-10T11:05:24;14.50;99.90
20231;DHT22;10274;49.022;9.338;2023-05-10T11:07:52;14.80;99.90
20231;DHT22;10274;49.022;9.338;2023-05-10T11:10:19;15.00;99.90
20231;DHT22;10274;49.022;9.338;2023-05-10T11:12:59;15.20;99.90
20231;DHT22;10274;49.022;9.338;2023-05-10T11:15:31;15.30;63.20
20231;DHT22;10274;49.022;9.338;2023-05-10T11:17:58;15.40;59.90
20231;DHT22;10274;49.022;9.338;2023-05-10T11:20:27;15.30;29.40
20231;DHT22;10274;49.022;9.338;2023-05-10T11:23:11;15.20;15.20
20231;DHT22;10274;49.022;9.338;2023-05-10T11:25:41;15.10;12.80
20231;DHT22;10274;49.022;9.338;2023-05-10T11:28:10;14.90;1.00
20231;DHT22;10274;49.022;9.338;2023-05-10T11:30:38;14.80;1.00
20231;DHT22;10274;49.022;9.338;2023-05-10T11:33:06;14.60;1.00
20231;DHT22;10274;49.022;9.338;2023-05-10T11:35:37;14.70;1.00
20231;DHT22;10274;49.022;9.338;2023-05-10T11:38:06;14.60;1.00
20231;DHT22;10274;49.022;9.338;2023-05-10T11:40:33;14.50;16.00
20231;DHT22;10274;49.022;9.338;2023-05-10T11:43:00;14.40;1.00
20231;DHT22;10274;49.022;9.338;2023-05-10T11:45:28;14.40;33.60
20231;DHT22;10274;49.022;9.338;2023-05-10T11:47:55;14.40;1.00
20231;DHT22;10274;49.022;9.338;2023-05-10T11:50:21;14.50;99.90
20231;DHT22;10274;49.022;9.338;2023-05-10T11:52:51;14.50;21.50
20231;DHT22;10274;49.022;9.338;2023-05-10T11:55:17;14.50;1.00
20231;DHT22;10274;49.022;9.338;2023-05-10T11:57:44;14.50;10.50
20231;DHT22;10274;49.022;9.338;2023-05-10T12:00:12;14.70;1.00
20231;DHT22;10274;49.022;9.338;2023-05-10T12:02:40;15.00;1.00
20231;DHT22;10274;49.022;9.338;2023-05-10T12:05:08;15.20;1.00
20231;DHT22;10274;49.022;9.338;2023-05-10T12:07:35;15.60;1.00
20231;DHT22;10274;49.022;9.338;2023-05-10T12:10:06;15.80;1.00
20231;DHT22;10274;49.022;9.338;2023-05-10T12:12:38;15.70;1.00
20231;DHT22;10274;49.022;9.338;2023-05-10T12:15:06;15.70;1.00
20231;DHT22;10274;49.022;9.338;2023-05-10T12:17:37;15.70;1.00
20231;DHT22;10274;49.022;9.338;2023-05-10T12:20:16;15.60;1.00
20231;DHT22;10274;49.022;9.338;2023-05-10T12:22:51;15.60;1.00
20231;DHT22;10274;49.022;9.338;2023-05-10T12:25:18;15.80;1.00
20231;DHT22;10274;49.022;9.338;2023-05-10T12:27:50;15.60;1.00
20231;DHT22;10274;49.022;9.338;2023-05-10T12:30:24;15.90;1.00
20231;DHT22;10274;49.022;9.338;2023-05-10T12:32:51;16.00;1.00
20231;DHT22;10274;49.022;9.338;2023-05-10T12:35:20;16.10;1.00
20231;DHT22;10274;49.022;9.338;2023-05-10T12:37:49;16.10;1.00
20231;DHT22;10274;49.022;9.338;2023-05-10T12:40:16;16.30;1.00
20231;DHT22;10274;49.022;9.338;2023-05-10T12:42:43;16.50;1.00
20231;DHT22;10274;49.022;9.338;2023-05-10T12:45:11;16.30;99.90
20231;DHT22;10274;49.022;9.338;2023-05-10T12:47:38;16.30;1.00
20231;DHT22;10274;49.022;9.338;2023-05-10T12:50:06;16.30;1.00
20231;DHT22;10274;49.022;9.338;2023-05-10T12:52:34;16.40;1.00
20231;DHT22;10274;49.022;9.338;2023-05-10T12:55:01;16.30;1.00
20231;DHT22;10274;49.022;9.338;2023-05-10T12:57:28;16.20;1.00
20231;DHT22;10274;49.022;9.338;2023-05-10T12:59:56;16.00;1.00
20231;DHT22;10274;49.022;9.338;2023-05-10T13:02:22;16.00;1.00
20231;DHT22;10274;49.022;9.338;2023-05-10T13:04:49;16.10;1.00
20231;DHT22;10274;49.022;9.338;2023-05-10T13:07:16;16.10;1.00
20231;DHT22;10274;49.022;9.338;2023-05-10T13:09:44;16.10;1.00
20231;DHT22;10274;49.022;9.338;2023-05-10T13:12:11;16.10;99.90
20231;DHT22;10274;49.022;9.338;2023-05-10T13:14:38;16.00;1.00
20231;DHT22;10274;49.022;9.338;2023-05-10T13:17:05;16.00;1.00
20231;DHT22;10274;49.022;9.338;2023-05-10T13:19:32;16.10;31.40
20231;DHT22;10274;49.022;9.338;2023-05-10T13:21:59;16.20;1.00
20231;DHT22;10274;49.022;9.338;2023-05-10T13:24:25;16.30;37.00
20231;DHT22;10274;49.022;9.338;2023-05-10T13:26:53;16.30;99.90
20231;DHT22;10274;49.022;9.338;2023-05-10T13:29:20;16.20;1.00
20231;DHT22;10274;49.022;9.338;2023-05-10T13:31:48;16.20;1.00
20231;DHT22;10274;49.022;9.338;2023-05-10T13:34:14;16.30;1.00
20231;DHT22;10274;49.022;9.338;2023-05-10T13:36:41;16.50;1.00
20231;DHT22;10274;49.022;9.338;2023-05-10T13:39:08;16.70;1.00
20231;DHT22;10274;49.022;9.338;2023-05-10T13:41:34;16.60;1.00
20231;DHT22;10274;49.022;9.338;2023-05-10T13:44:03;16.70;99.90
20231;DHT22;10274;49.022;9.338;2023-05-10T13:46:30;16.80;59.30
20231;DHT22;10274;49.022;9.338;2023-05-10T13:48:56;16.80;99.90
20231;DHT22;10274;49.022;9.338;2023-05-10T13:51:23;16.80;1.00
20231;DHT22;10274;49.022;9.338;2023-05-10T13:53:50;16.80;1.00
20231;DHT22;10274;49.022;9.338;2023-05-10T13:56:17;16.50;1.00
20231;DHT22;10274;49.022;9.338;2023-05-10T13:58:44;16.40;99.90
20231;DHT22;10274;49.022;9.338;2023-05-10T14:01:12;16.50;99.90
20231;DHT22;10274;49.022;9.338;2023-05-10T14:03:38;16.60;99.90
20231;DHT22;10274;49.022;9.338;2023-05-10T14:06:05;16.50;1.00
20231;DHT22;10274;49.022;9.338;2023-05-10T14:08:32;16.60;1.00
20231;DHT22;10274;49.022;9.338;2023-05-10T14:10:59;16.60;1.00
20231;DHT22;10274;49.022;9.338;2023-05-10T14:13:26;16.70;1.00
20231;DHT22;10274;49.022;9.338;2023-05-10T14:15:53;16.70;1.00
20231;DHT22;10274;49.022;9.338;2023-05-10T14:18:21;16.80;99.90
20231;DHT22;10274;49.022;9.338;2023-05-10T14:20:48;16.90;33.30
20231;DHT22;10274;49.022;9.338;2023-05-10T14:23:15;16.80;99.90
20231;DHT22;10274;49.022;9.338;2023-05-10T14:25:41;16.90;1.00
20231;DHT22;10274;49.022;9.338;2023-05-10T14:28:09;16.90;1.00
20231;DHT22;10274;49.022;9.338;2023-05-10T14:30:36;16.90;99.90
20231;DHT22;10274;49.022;9.338;2023-05-10T14:33:03;16.80;1.00
20231;DHT22;10274;49.022;9.338;2023-05-10T14:35:31;16.90;99.90
20231;DHT22;10274;49.022;9.338;2023-05-10T14:37:57;16.80;99.90
20231;DHT22;10274;49.022;9.338;2023-05-10T14:40:24;16.60;99.90
20231;DHT22;10274;49.022;9.338;2023-05-10T14:42:51;16.50;99.90
20231;DHT22;10274;49.022;9.338;2023-05-10T14:45:18;16.60;99.90
20231;DHT22;10274;49.022;9.338;2023-05-10T14:47:45;16.60;99.90
20231;DHT22;10274;49.022;9.338;2023-05-10T14:50:12;16.70;1.00
20231;DHT22;10274;49.022;9.338;2023-05-10T14:52:40;16.60;1.00
20231;DHT22;10274;49.022;9.338;2023-05-10T14:55:07;16.50;1.00
20231;DHT22;10274;49.022;9.338;2023-05-10T14:57:34;16.50;99.90
20231;DHT22;10274;49.022;9.338;2023-05-10T15:00:01;16.40;1.00
20231;DHT22;10274;49.022;9.338;2023-05-10T15:02:29;16.40;1.00
20231;DHT22;10274;49.022;9.338;2023-05-10T15:04:55;16.30;1.00
20231;DHT22;10274;49.022;9.338;2023-05-10T15:07:23;16.20;99.90
20231;DHT22;10274;49.022;9.338;2023-05-10T15:09:51;16.30;1.00
20231;DHT22;10274;49.022;9.338;2023-05-10T15:12:18;16.20;1.00
20231;DHT22;10274;49.022;9.338;2023-05-10T15:14:45;16.10;99.90
20231;DHT22;10274;49.022;9.338;2023-05-10T15:17:12;16.20;99.90
20231;DHT22;10274;49.022;9.338;2023-05-10T15:19:38;16.30;1.00
20231;DHT22;10274;49.022;9.338;2023-05-10T15:22:05;16.30;75.50
20231;DHT22;10274;49.022;9.338;2023-05-10T15:24:32;16.40;1.00
20231;DHT22;10274;49.022;9.338;2023-05-10T15:27:00;16.50;1.00
20231;DHT22;10274;49.022;9.338;2023-05-10T15:29:27;16.50;99.90
20231;DHT22;10274;49.022;9.338;2023-05-10T15:31:54;16.40;99.90
20231;DHT22;10274;49.022;9.338;2023-05-10T15:34:21;16.50;99.90
20231;DHT22;10274;49.022;9.338;2023-05-10T15:36:48;16.50;99.90
20231;DHT22;10274;49.022;9.338;2023-05-10T15:39:14;16.50;1.00
20231;DHT22;10274;49.022;9.338;2023-05-10T15:41:41;16.40;1.00
20231;DHT22;10274;49.022;9.338;2023-05-10T15:44:09;16.40;1.00
20231;DHT22;10274;49.022;9.338;2023-05-10T15:46:36;16.40;99.90
20231;DHT22;10274;49.022;9.338;2023-05-10T15:49:03;16.50;86.60
20231;DHT22;10274;49.022;9.338;2023-05-10T15:51:31;16.40;1.00